Time;durP1;ratioP1;P1;durP2;ratioP2;P2;SDS_P1;SDS_P2;PMS_P1;PMS_P2;Temp;Humidity;BMP_temperature;BMP_pressure;BME280_temperature;BME280_humidity;BME280_pressure;Samples;Min_cycle;Max_cycle;Signal;HPM_P1;HPM_P2
2023/08/28 00:01:40;;;;;;;2.60;2.20;;;;;;;14.65;73.84;98342.59;5002107;28;20060;-83
2023/08/28 00:04:06;;;;;;;2.22;2.03;;;;;;;14.75;74.00;98345.13;4990262;28;20021;-83
2023/08/28 00:06:32;;;;;;;2.40;2.20;;;;;;;14.60;73.54;98316.59;5008934;28;20167;-83
2023/08/28 00:08:57;;;;;;;5.10;2.00;;;;;;;14.57;73.42;98302.94;5004388;28;20109;-83
2023/08/28 00:11:23;;;;;;;2.83;2.10;;;;;;;14.91;73.32;98358.13;4988800;28;20045;-83
2023/08/28 00:13:48;;;;;;;4.55;3.00;;;;;;;14.95;73.43;98377.13;4994544;28;20037;-82
2023/08/28 00:16:13;;;;;;;5.05;2.15;;;;;;;15.09;73.60;98401.44;4988184;28;20033;-83
2023/08/28 00:18:39;;;;;;;6.68;2.45;;;;;;;14.63;73.31;98305.28;4983235;28;20029;-83
2023/08/28 00:21:04;;;;;;;8.05;2.90;;;;;;;15.06;73.18;98378.63;4974090;28;20165;-83
2023/08/28 00:23:32;;;;;;;3.92;2.08;;;;;;;14.46;73.52;98329.09;5009692;28;20026;-83
2023/08/28 00:25:59;;;;;;;5.28;2.42;;;;;;;14.52;74.15;98333.34;4974538;28;20040;-83
2023/08/28 00:28:24;;;;;;;3.30;2.30;;;;;;;15.01;73.92;98392.91;4986884;28;20034;-83
2023/08/28 00:30:49;;;;;;;7.93;3.05;;;;;;;14.77;74.45;98383.25;4989525;28;20057;-82
2023/08/28 00:33:15;;;;;;;6.55;2.42;;;;;;;14.89;73.93;98389.03;4989157;28;20591;-83
2023/08/28 00:35:42;;;;;;;2.63;2.28;;;;;;;14.83;73.91;98384.81;4971088;28;20034;-83
2023/08/28 00:38:09;;;;;;;3.22;2.03;;;;;;;14.80;74.04;98390.75;4994289;28;20500;-83
2023/08/28 00:40:39;;;;;;;3.90;3.03;;;;;;;14.75;74.29;98388.13;4974440;28;20116;-83
2023/08/28 00:43:04;;;;;;;4.57;2.90;;;;;;;14.74;73.98;98381.16;5010652;28;20109;-83
2023/08/28 00:45:30;;;;;;;2.80;2.22;;;;;;;14.82;73.92;98389.38;4970247;28;20102;-83
2023/08/28 00:47:55;;;;;;;4.45;2.95;;;;;;;14.65;74.55;98364.88;4988735;28;20086;-82
2023/08/28 00:50:21;;;;;;;4.68;3.05;;;;;;;14.91;73.42;98389.56;4990192;28;20043;-83
2023/08/28 00:52:47;;;;;;;4.63;2.38;;;;;;;14.80;73.71;98383.50;4973220;28;20029;-82
2023/08/28 00:55:13;;;;;;;5.00;2.30;;;;;;;14.84;73.53;98397.16;4966323;28;20080;-82
2023/08/28 00:57:39;;;;;;;3.35;2.80;;;;;;;14.78;73.49;98388.38;4960298;28;20026;-83
2023/08/28 01:00:06;;;;;;;2.25;2.05;;;;;;;14.93;73.36;98400.81;5007263;28;20018;-83
2023/08/28 01:02:32;;;;;;;2.40;2.25;;;;;;;14.50;74.05;98408.03;4990136;28;20044;-83
2023/08/28 01:04:58;;;;;;;3.97;2.42;;;;;;;14.50;74.29;98389.22;4973115;28;20031;-83
2023/08/28 01:07:55;;;;;;;3.20;2.88;;;;;;;14.42;74.70;98405.94;4971552;28;20684;-83
2023/08/28 01:10:33;;;;;;;2.88;2.50;;;;;;;14.53;74.59;98407.44;4944054;28;20103;-83
2023/08/28 01:13:17;;;;;;;4.50;2.55;;;;;;;14.46;74.57;98384.69;4991407;28;20042;-83
2023/08/28 01:15:43;;;;;;;4.90;2.72;;;;;;;14.47;74.08;98400.53;5009202;28;20029;-83
2023/08/28 01:18:09;;;;;;;4.05;2.90;;;;;;;14.36;74.84;98398.22;4986962;28;20037;-83
2023/08/28 01:20:35;;;;;;;3.38;2.75;;;;;;;14.42;74.42;98403.25;4968151;28;20449;-83
2023/08/28 01:23:11;;;;;;;5.72;3.03;;;;;;;14.42;74.39;98416.69;5004646;28;20117;-82
2023/08/28 01:25:36;;;;;;;;;;;;;;;14.44;74.69;98414.50;4991466;28;20521;-82
2023/08/28 01:28:02;;;;;;;3.47;3.17;;;;;;;14.47;73.80;98399.72;5001882;28;19928;-83
2023/08/28 01:30:28;;;;;;;3.92;3.40;;;;;;;14.42;74.52;98391.69;4992900;28;20038;-83
2023/08/28 01:32:53;;;;;;;3.60;3.30;;;;;;;14.40;74.47;98402.75;4955597;28;20038;-82
2023/08/28 01:35:24;;;;;;;4.78;3.10;;;;;;;14.44;74.76;98394.94;4977909;28;20034;-82
2023/08/28 01:38:21;;;;;;;4.20;3.15;;;;;;;14.41;74.65;98390.13;4975546;28;20125;-82
2023/08/28 01:40:58;;;;;;;3.60;2.97;;;;;;;14.44;74.72;98387.66;4987099;28;20026;-82
2023/08/28 01:43:27;;;;;;;3.35;2.90;;;;;;;14.50;74.97;98391.91;4973572;28;20030;-83
2023/08/28 01:45:53;;;;;;;3.65;3.30;;;;;;;14.37;74.84;98367.59;4990646;28;20165;-82
2023/08/28 01:48:18;;;;;;;2.95;2.75;;;;;;;14.31;74.81;98366.84;4994134;28;20159;-83
2023/08/28 01:50:44;;;;;;;4.72;3.53;;;;;;;14.26;74.72;98358.84;4995253;28;20044;-82
2023/08/28 01:53:10;;;;;;;3.65;3.35;;;;;;;14.50;75.04;98385.72;4993520;28;20697;-82
2023/08/28 01:55:45;;;;;;;4.07;3.13;;;;;;;14.54;74.80;98392.94;4987401;28;20959;-83
2023/08/28 01:58:11;;;;;;;5.85;3.95;;;;;;;14.43;74.80;98383.38;5006148;28;20030;-83
2023/08/28 02:00:36;;;;;;;4.65;3.42;;;;;;;14.45;75.09;98383.91;4989080;28;20048;-83
2023/08/28 02:03:01;;;;;;;5.60;3.50;;;;;;;14.60;74.75;98381.03;5003972;28;20026;-83
2023/08/28 02:05:27;;;;;;;4.03;3.63;;;;;;;14.53;74.27;98379.78;5007375;28;20045;-83
2023/08/28 02:07:52;;;;;;;3.60;3.08;;;;;;;14.43;74.64;98359.22;4994269;28;20071;-82
2023/08/28 02:10:18;;;;;;;9.98;3.45;;;;;;;14.45;74.73;98370.47;4988755;28;20034;-82
2023/08/28 02:12:43;;;;;;;4.03;3.47;;;;;;;14.46;74.62;98385.47;4976687;28;20026;-83
2023/08/28 02:15:09;;;;;;;3.55;2.90;;;;;;;14.50;74.71;98383.84;4973998;28;20052;-83
2023/08/28 02:17:34;;;;;;;3.83;3.42;;;;;;;14.36;74.99;98369.50;4991264;28;20081;-82
2023/08/28 02:19:59;;;;;;;10.13;3.63;;;;;;;14.40;74.50;98364.34;4986510;28;20026;-83
2023/08/28 02:22:25;;;;;;;5.60;4.28;;;;;;;14.47;74.41;98375.53;4984111;28;20040;-82
2023/08/28 02:24:50;;;;;;;4.25;3.33;;;;;;;14.58;74.44;98371.66;4975789;28;20489;-83
2023/08/28 02:27:15;;;;;;;4.18;3.60;;;;;;;14.60;73.88;98382.94;4992082;28;20030;-83
2023/08/28 02:29:41;;;;;;;4.95;3.15;;;;;;;14.56;73.89;98388.06;5013017;28;20068;-82
2023/08/28 02:32:06;;;;;;;5.53;3.65;;;;;;;14.47;74.03;98400.53;4964093;28;20088;-83
2023/08/28 02:34:31;;;;;;;7.05;3.70;;;;;;;14.48;74.10;98394.06;4959712;28;20117;-83
2023/08/28 02:36:57;;;;;;;4.40;3.42;;;;;;;14.69;73.75;98422.31;4980638;28;20485;-83
2023/08/28 02:39:22;;;;;;;5.25;3.72;;;;;;;14.56;73.76;98406.88;4979012;28;20049;-83
2023/08/28 02:41:48;;;;;;;4.55;3.80;;;;;;;14.50;73.38;98415.28;4995922;28;20058;-83
2023/08/28 02:44:13;;;;;;;4.70;3.45;;;;;;;14.48;73.31;98418.22;4994352;28;20034;-83
2023/08/28 02:46:38;;;;;;;4.22;3.65;;;;;;;13.84;75.67;98433.78;4969041;28;20022;-83
2023/08/28 02:49:04;;;;;;;10.73;3.38;;;;;;;14.27;74.04;98435.59;4976141;28;20038;-83
2023/08/28 02:51:29;;;;;;;3.95;3.55;;;;;;;14.33;73.64;98444.44;4990699;28;20156;-82
2023/08/28 02:53:54;;;;;;;3.67;3.35;;;;;;;14.17;73.81;98436.50;4979205;28;20095;-84
2023/08/28 02:56:20;;;;;;;5.97;3.60;;;;;;;14.07;74.36;98444.59;4993308;28;21748;-83
2023/08/28 02:58:45;;;;;;;4.80;3.10;;;;;;;13.89;74.32;98434.53;5006692;28;20109;-83
2023/08/28 03:01:10;;;;;;;4.05;3.47;;;;;;;14.07;74.45;98441.91;4973311;28;20032;-83
2023/08/28 03:03:36;;;;;;;4.60;3.35;;;;;;;14.06;74.19;98424.22;4994658;28;20030;-83
2023/08/28 03:06:04;;;;;;;5.72;3.65;;;;;;;14.00;73.99;98424.56;4990528;28;20113;-83
2023/08/28 03:08:30;;;;;;;4.15;3.17;;;;;;;13.92;74.46;98415.22;5009448;28;20104;-83
2023/08/28 03:10:55;;;;;;;3.97;3.15;;;;;;;13.69;74.53;98404.41;4957725;28;20490;-83
2023/08/28 03:13:21;;;;;;;6.30;3.55;;;;;;;13.64;75.22;98409.78;4992287;28;20025;-82
2023/08/28 03:15:46;;;;;;;3.75;3.40;;;;;;;13.60;74.34;98419.47;4976762;28;20112;-83
2023/08/28 03:18:11;;;;;;;3.83;3.25;;;;;;;13.64;74.72;98415.16;4983047;28;20454;-83
2023/08/28 03:20:37;;;;;;;3.13;2.92;;;;;;;13.69;74.33;98418.63;4978332;28;20033;-83
2023/08/28 03:23:02;;;;;;;3.97;3.58;;;;;;;13.46;74.53;98398.63;4985864;28;20037;-83
2023/08/28 03:25:28;;;;;;;7.75;3.58;;;;;;;13.69;74.31;98423.97;4970689;28;20414;-83
2023/08/28 03:27:53;;;;;;;5.97;3.28;;;;;;;13.66;74.69;98410.31;4985948;28;20045;-82
2023/08/28 03:30:19;;;;;;;4.70;3.53;;;;;;;13.74;74.11;98404.38;4972116;28;20409;-82
2023/08/28 03:32:44;;;;;;;5.93;4.18;;;;;;;13.71;73.85;98386.94;4971526;28;20121;-83
2023/08/28 03:35:10;;;;;;;3.78;3.30;;;;;;;13.53;74.27;98401.81;4956553;28;20038;-82
2023/08/28 03:37:35;;;;;;;5.70;3.40;;;;;;;13.53;74.17;98398.31;4991689;28;20498;-83
2023/08/28 03:40:01;;;;;;;4.10;3.65;;;;;;;13.64;73.61;98401.75;4992736;28;20021;-82
2023/08/28 03:42:26;;;;;;;5.75;4.07;;;;;;;13.62;73.93;98395.84;4972938;28;20065;-83
2023/08/28 03:44:51;;;;;;;8.13;3.97;;;;;;;13.65;74.26;98411.41;4984070;28;20058;-82
2023/08/28 03:47:17;;;;;;;6.38;3.50;;;;;;;13.51;74.58;98405.84;4992266;28;20096;-83
2023/08/28 03:49:42;;;;;;;4.63;3.78;;;;;;;13.35;74.98;98375.66;4991214;28;20103;-83
2023/08/28 03:52:07;;;;;;;4.40;4.00;;;;;;;13.64;74.79;98407.91;4971541;28;20171;-82
2023/08/28 03:54:33;;;;;;;6.85;4.63;;;;;;;13.65;75.07;98412.19;4985996;28;20038;-83
2023/08/28 03:56:58;;;;;;;9.32;4.82;;;;;;;13.59;75.37;98405.25;4972482;28;21984;-82
2023/08/28 03:59:23;;;;;;;7.78;3.90;;;;;;;13.60;75.49;98408.75;4987067;28;20433;-82
2023/08/28 04:01:49;;;;;;;7.88;4.45;;;;;;;13.64;75.28;98413.28;4959220;28;20045;-83
2023/08/28 04:04:16;;;;;;;10.48;4.18;;;;;;;13.65;75.64;98403.34;5005630;28;20030;-82
2023/08/28 04:06:42;;;;;;;5.95;4.82;;;;;;;13.57;76.01;98390.50;4987691;28;20430;-82
2023/08/28 04:09:07;;;;;;;4.65;4.22;;;;;;;13.71;75.68;98397.69;4971757;28;20080;-82
2023/08/28 04:11:32;;;;;;;4.07;3.78;;;;;;;13.70;75.42;98369.25;4970508;28;20129;-82
2023/08/28 04:13:58;;;;;;;4.18;3.72;;;;;;;13.86;74.82;98375.28;4986294;28;20034;-82
2023/08/28 04:16:23;;;;;;;6.63;4.43;;;;;;;13.78;74.95;98371.31;4979622;28;20037;-82
2023/08/28 04:18:49;;;;;;;7.00;4.15;;;;;;;13.71;75.55;98376.22;4963440;28;20125;-83
2023/08/28 04:21:14;;;;;;;4.75;4.15;;;;;;;13.67;75.65;98387.78;4992118;28;20044;-82
2023/08/28 04:23:40;;;;;;;5.10;4.13;;;;;;;13.72;75.36;98385.03;4985874;28;20117;-84
2023/08/28 04:26:05;;;;;;;6.65;5.10;;;;;;;13.61;75.95;98384.31;4989327;28;20076;-84
2023/08/28 04:28:31;;;;;;;5.57;5.00;;;;;;;13.41;75.81;98374.53;4986543;28;20042;-84
2023/08/28 04:30:56;;;;;;;7.10;6.20;;;;;;;12.48;79.91;98388.84;4958115;28;20117;-83
2023/08/28 04:33:23;;;;;;;8.75;7.85;;;;;;;11.67;83.31;98396.94;4970302;28;20050;-84
2023/08/28 04:35:49;;;;;;;10.45;7.65;;;;;;;11.23;84.94;98372.53;4986161;28;20034;-83
2023/08/28 04:38:14;;;;;;;6.47;5.82;;;;;;;12.08;82.10;98357.63;4974664;28;20088;-83
2023/08/28 04:40:39;;;;;;;11.90;6.38;;;;;;;12.35;80.75;98373.34;4975625;28;20057;-83
2023/08/28 04:43:05;;;;;;;8.80;7.05;;;;;;;12.57;78.92;98369.28;4971824;28;20122;-84
2023/08/28 04:45:30;;;;;;;9.88;6.20;;;;;;;12.87;77.99;98368.38;4986720;28;20044;-83
2023/08/28 04:47:55;;;;;;;8.32;6.45;;;;;;;12.90;77.85;98375.88;4970779;28;20029;-83
2023/08/28 04:50:21;;;;;;;6.93;5.40;;;;;;;12.58;79.80;98360.16;5002943;28;20120;-83
2023/08/28 04:52:46;;;;;;;7.72;6.97;;;;;;;12.21;80.56;98383.03;4971698;28;20112;-83
2023/08/28 04:55:11;;;;;;;9.55;6.03;;;;;;;12.91;78.77;98369.41;4971064;28;20030;-83
2023/08/28 04:57:37;;;;;;;9.82;7.53;;;;;;;12.40;80.63;98378.72;4973826;28;20026;-83
2023/08/28 05:00:02;;;;;;;7.10;6.47;;;;;;;12.88;78.84;98379.88;4970488;28;20030;-82
2023/08/28 05:02:28;;;;;;;7.85;6.90;;;;;;;12.81;79.27;98372.16;4986019;28;21938;-83
2023/08/28 05:04:53;;;;;;;7.80;6.97;;;;;;;12.58;79.62;98381.59;4981789;28;20034;-83
2023/08/28 05:07:18;;;;;;;8.45;6.82;;;;;;;12.61;80.08;98367.66;4996592;28;20026;-83
2023/08/28 05:09:44;;;;;;;16.35;8.23;;;;;;;12.07;81.90;98380.09;4974664;28;20077;-82
2023/08/28 05:12:09;;;;;;;8.68;6.55;;;;;;;12.55;80.99;98384.84;4970527;28;20317;-84
2023/08/28 05:14:35;;;;;;;9.13;7.18;;;;;;;12.63;80.35;98367.38;4985442;28;20520;-84
2023/08/28 05:17:00;;;;;;;10.40;7.90;;;;;;;12.54;80.22;98364.47;4984878;28;20030;-84
2023/08/28 05:19:25;;;;;;;14.57;8.02;;;;;;;12.70;80.18;98378.63;4990397;28;20453;-83
2023/08/28 05:21:51;;;;;;;7.78;6.47;;;;;;;12.95;79.17;98356.28;4978803;28;20885;-83
2023/08/28 05:24:16;;;;;;;6.47;5.88;;;;;;;13.28;77.58;98358.28;4988963;28;20034;-83
2023/08/28 05:26:41;;;;;;;6.60;5.60;;;;;;;13.32;77.25;98365.47;4961306;28;20018;-83
2023/08/28 05:29:07;;;;;;;7.03;5.03;;;;;;;13.26;77.85;98369.25;4990550;28;20034;-83
2023/08/28 05:31:32;;;;;;;5.97;5.38;;;;;;;13.38;77.48;98377.78;4961968;28;20026;-83
2023/08/28 05:33:57;;;;;;;7.95;5.65;;;;;;;13.43;77.18;98372.38;4996042;28;20044;-83
2023/08/28 05:36:23;;;;;;;6.80;5.38;;;;;;;13.49;76.92;98363.25;5007704;28;20029;-83
2023/08/28 05:38:48;;;;;;;6.55;5.18;;;;;;;13.51;77.09;98384.41;4991992;28;20053;-83
2023/08/28 05:41:13;;;;;;;5.93;5.22;;;;;;;13.46;77.33;98385.22;5009194;28;20022;-83
2023/08/28 05:43:39;;;;;;;5.13;4.63;;;;;;;13.43;77.85;98385.00;4972521;28;20088;-83
2023/08/28 05:46:04;;;;;;;6.03;5.53;;;;;;;13.40;77.84;98364.91;4991478;28;20034;-83
2023/08/28 05:48:29;;;;;;;5.43;4.93;;;;;;;13.44;78.08;98371.31;4990707;28;20406;-83
2023/08/28 05:50:55;;;;;;;9.93;5.47;;;;;;;13.45;77.82;98364.84;4964780;28;20039;-82
2023/08/28 05:53:20;;;;;;;6.63;5.97;;;;;;;13.21;78.80;98368.50;5005645;28;20026;-83
2023/08/28 05:55:45;;;;;;;8.00;5.40;;;;;;;13.34;78.98;98371.38;4990496;28;20070;-83
2023/08/28 05:58:11;;;;;;;9.15;7.50;;;;;;;12.77;81.43;98366.56;5008190;28;20496;-83
2023/08/28 06:00:36;;;;;;;6.90;5.38;;;;;;;13.09;80.16;98376.06;4975365;28;20406;-83
2023/08/28 06:03:02;;;;;;;7.90;6.32;;;;;;;12.76;82.34;98393.59;4993828;28;20029;-83
2023/08/28 06:05:27;;;;;;;6.82;6.00;;;;;;;12.77;82.92;98376.44;5003613;28;20146;-83
2023/08/28 06:07:52;;;;;;;12.95;6.60;;;;;;;12.96;82.08;98376.63;5007818;28;20036;-83
2023/08/28 06:10:19;;;;;;;9.30;7.93;;;;;;;12.72;83.33;98377.28;4976578;28;20489;-83
2023/08/28 06:12:46;;;;;;;17.33;8.75;;;;;;;12.24;86.02;98366.41;4975586;28;20048;-83
2023/08/28 06:15:15;;;;;;;11.43;9.73;;;;;;;12.21;87.18;98383.03;4974922;28;20034;-83
2023/08/28 06:17:40;;;;;;;12.73;9.43;;;;;;;12.29;87.47;98385.97;5009840;28;20249;-83
2023/08/28 06:20:09;;;;;;;6.75;6.07;;;;;;;12.80;85.12;98382.06;5008116;28;20033;-82
2023/08/28 06:22:35;;;;;;;10.48;7.68;;;;;;;12.66;86.39;98382.91;4986584;28;20026;-83
2023/08/28 06:25:01;;;;;;;6.68;5.43;;;;;;;13.35;82.54;98388.25;4969506;28;20044;-83
2023/08/28 06:27:26;;;;;;;9.45;8.57;;;;;;;13.01;84.48;98398.84;4988658;28;20409;-83
2023/08/28 06:29:51;;;;;;;10.00;6.57;;;;;;;12.85;85.17;98386.59;4976094;28;20053;-83
2023/08/28 06:32:17;;;;;;;9.65;7.68;;;;;;;13.27;83.41;98400.38;4990889;28;20033;-83
2023/08/28 06:34:42;;;;;;;8.60;5.88;;;;;;;13.61;82.07;98391.59;4962484;28;20029;-84
2023/08/28 06:37:07;;;;;;;8.77;6.90;;;;;;;13.65;81.05;98396.09;4977985;28;20034;-83
2023/08/28 06:39:33;;;;;;;9.90;7.60;;;;;;;13.49;81.96;98386.56;4992251;28;20034;-83
2023/08/28 06:41:58;;;;;;;12.00;7.32;;;;;;;13.60;81.65;98395.34;4957502;28;20061;-83
2023/08/28 06:44:24;;;;;;;6.72;6.15;;;;;;;13.69;81.92;98385.63;4996653;28;20037;-84
2023/08/28 06:46:49;;;;;;;7.70;6.97;;;;;;;13.60;81.86;98403.38;4985911;28;20034;-83
2023/08/28 06:49:14;;;;;;;7.97;7.18;;;;;;;13.40;83.85;98372.94;4998543;28;20109;-82
2023/08/28 06:51:40;;;;;;;12.07;9.70;;;;;;;12.94;88.84;98394.84;4991899;28;20501;-82
2023/08/28 06:54:06;;;;;;;15.00;9.02;;;;;;;12.79;89.33;98383.16;4959434;28;20421;-83
2023/08/28 06:56:31;;;;;;;12.93;8.65;;;;;;;12.81;89.96;98393.56;4974262;28;20153;-82
2023/08/28 06:58:57;;;;;;;10.30;7.25;;;;;;;12.77;90.04;98398.69;4974251;28;20149;-83
2023/08/28 07:01:22;;;;;;;11.02;9.93;;;;;;;12.89;88.64;98390.31;4970561;28;20033;-83
2023/08/28 07:03:48;;;;;;;10.88;9.50;;;;;;;12.94;89.45;98419.78;4983185;28;20030;-83
2023/08/28 07:06:13;;;;;;;6.40;5.18;;;;;;;13.14;86.98;98384.88;4998698;28;20052;-83
2023/08/28 07:08:39;;;;;;;10.55;9.52;;;;;;;12.91;89.57;98404.22;4996281;28;20026;-83
2023/08/28 07:11:04;;;;;;;8.93;7.25;;;;;;;13.07;90.06;98419.22;4977573;28;20087;-83
2023/08/28 07:13:30;;;;;;;15.65;10.05;;;;;;;13.04;88.99;98409.00;4995879;28;20037;-84
2023/08/28 07:15:55;;;;;;;5.00;4.57;;;;;;;13.58;85.58;98408.22;4972763;28;20494;-83
2023/08/28 07:18:21;;;;;;;9.88;8.65;;;;;;;13.64;86.51;98417.81;4991542;28;20045;-83
2023/08/28 07:20:46;;;;;;;6.03;4.20;;;;;;;13.81;84.22;98420.91;4977929;28;20438;-83
2023/08/28 07:23:12;;;;;;;3.92;3.47;;;;;;;14.40;81.43;98416.16;4989000;28;20117;-83
2023/08/28 07:25:38;;;;;;;7.47;6.10;;;;;;;14.37;82.19;98397.16;4990282;28;20048;-84
2023/08/28 07:28:05;;;;;;;4.38;3.72;;;;;;;14.38;82.09;98421.00;4986838;28;20033;-83
2023/08/28 07:30:31;;;;;;;4.90;3.45;;;;;;;14.63;80.61;98428.03;4969571;28;20425;-83
2023/08/28 07:32:56;;;;;;;5.03;4.53;;;;;;;14.63;80.79;98412.72;4976795;28;20029;-83
2023/08/28 07:35:22;;;;;;;11.20;8.20;;;;;;;14.68;82.27;98431.44;4980360;28;20026;-83
2023/08/28 07:37:47;;;;;;;4.63;4.03;;;;;;;14.55;82.14;98434.00;4962805;28;20076;-83
2023/08/28 07:40:12;;;;;;;9.55;8.55;;;;;;;14.71;83.67;98422.03;4960030;28;20106;-83
2023/08/28 07:42:38;;;;;;;5.05;4.10;;;;;;;14.80;81.05;98418.44;4971530;28;20128;-83
2023/08/28 07:45:04;;;;;;;3.20;2.88;;;;;;;15.10;79.39;98421.84;4990162;28;20386;-83
2023/08/28 07:47:29;;;;;;;8.50;7.60;;;;;;;14.90;81.72;98406.75;4990998;28;20031;-84
2023/08/28 07:49:55;;;;;;;5.78;3.88;;;;;;;15.07;79.85;98425.13;4986946;28;20042;-83
2023/08/28 07:52:20;;;;;;;10.05;8.13;;;;;;;14.86;81.34;98427.22;4997370;28;20033;-83
2023/08/28 07:54:46;;;;;;;9.32;6.15;;;;;;;15.05;80.74;98419.22;4986247;28;20060;-83
2023/08/28 07:57:11;;;;;;;5.15;4.38;;;;;;;15.23;79.60;98411.19;5006924;28;20108;-84
2023/08/28 07:59:36;;;;;;;11.07;7.97;;;;;;;14.92;81.56;98402.69;4981362;28;20062;-85
2023/08/28 08:02:04;;;;;;;5.82;3.50;;;;;;;15.34;78.30;98411.84;4958835;28;20038;-84
2023/08/28 08:04:29;;;;;;;8.55;7.65;;;;;;;15.33;79.17;98416.41;4973044;28;20490;-85
2023/08/28 08:06:55;;;;;;;6.70;5.55;;;;;;;15.36;78.95;98425.78;5009131;28;20096;-84
2023/08/28 08:09:22;;;;;;;9.68;8.23;;;;;;;15.18;79.84;98435.44;4977273;28;20038;-84
2023/08/28 08:12:02;;;;;;;4.03;3.17;;;;;;;15.66;77.35;98463.88;4963106;28;20517;-84
2023/08/28 08:14:27;;;;;;;9.57;6.55;;;;;;;15.60;77.41;98456.16;5006993;28;20037;-85
2023/08/28 08:16:53;;;;;;;14.73;6.70;;;;;;;15.49;78.33;98455.50;4978308;28;20034;-84
2023/08/28 08:19:18;;;;;;;3.70;3.40;;;;;;;15.61;76.95;98450.50;4975811;28;20095;-84
2023/08/28 08:21:43;;;;;;;4.30;3.58;;;;;;;15.72;76.58;98435.03;4990477;28;20033;-85
2023/08/28 08:24:09;;;;;;;4.30;3.72;;;;;;;15.78;76.59;98444.63;5008549;28;20030;-85
2023/08/28 08:26:34;;;;;;;5.53;3.85;;;;;;;15.86;76.38;98464.69;4973074;28;20030;-84
2023/08/28 08:28:59;;;;;;;4.15;3.80;;;;;;;15.83;75.87;98463.38;5003550;28;20056;-84
2023/08/28 08:31:25;;;;;;;4.88;3.70;;;;;;;15.68;76.20;98444.78;4969196;28;20782;-84
2023/08/28 08:33:50;;;;;;;7.55;6.75;;;;;;;15.66;77.11;98434.28;4977008;28;20589;-84
2023/08/28 08:36:16;;;;;;;5.25;4.75;;;;;;;15.83;76.02;98441.03;4985640;28;20037;-84
2023/08/28 08:38:42;;;;;;;5.28;4.00;;;;;;;15.90;75.83;98442.25;5006415;28;20044;-84
2023/08/28 08:41:08;;;;;;;6.20;4.18;;;;;;;16.02;75.95;98441.81;4959386;28;20026;-84
2023/08/28 08:43:34;;;;;;;7.32;4.82;;;;;;;16.04;75.95;98435.06;4992519;28;20056;-84
2023/08/28 08:46:07;;;;;;;8.73;7.88;;;;;;;15.88;75.63;98420.22;5009902;28;20026;-84
2023/08/28 08:48:36;;;;;;;7.57;5.13;;;;;;;15.90;75.75;98415.34;5006758;28;20034;-84
2023/08/28 08:51:04;;;;;;;6.50;5.90;;;;;;;15.97;76.06;98413.09;4987672;28;20041;-84
2023/08/28 08:53:42;;;;;;;10.20;9.18;;;;;;;15.80;75.30;98415.50;5008415;28;20088;-84
2023/08/28 08:56:13;;;;;;;7.25;4.70;;;;;;;16.04;75.92;98408.13;4994740;28;20549;-84
2023/08/28 08:58:40;;;;;;;4.63;4.30;;;;;;;16.14;74.53;98407.94;4997295;28;20033;-84
2023/08/28 09:01:06;;;;;;;5.78;4.43;;;;;;;16.18;74.50;98414.38;4980520;28;20037;-84
2023/08/28 09:03:32;;;;;;;10.27;7.80;;;;;;;16.16;75.06;98431.91;4997710;28;20025;-85
2023/08/28 09:05:59;;;;;;;5.68;4.85;;;;;;;16.19;74.44;98423.22;4996560;28;20110;-85
2023/08/28 09:08:26;;;;;;;10.32;7.18;;;;;;;16.13;75.42;98411.75;4998961;28;20026;-84
2023/08/28 09:10:51;;;;;;;8.57;6.38;;;;;;;16.28;74.64;98419.56;5007832;28;20044;-84
2023/08/28 09:13:16;;;;;;;7.07;5.70;;;;;;;16.29;74.49;98423.84;5001873;28;20114;-85
2023/08/28 09:15:42;;;;;;;9.23;8.23;;;;;;;16.26;75.44;98424.47;4989894;28;20064;-84
2023/08/28 09:18:07;;;;;;;6.40;5.88;;;;;;;16.19;75.17;98426.72;5012068;28;20034;-84
2023/08/28 09:20:33;;;;;;;10.65;9.07;;;;;;;15.68;74.37;98425.94;4992592;28;20478;-84
2023/08/28 09:22:58;;;;;;;6.13;5.55;;;;;;;16.27;74.59;98433.34;4971107;28;20398;-85
2023/08/28 09:25:24;;;;;;;8.63;5.50;;;;;;;16.39;73.94;98418.31;4988919;28;20486;-84
2023/08/28 09:27:52;;;;;;;9.73;5.82;;;;;;;16.34;73.92;98407.63;4996321;28;20033;-84
2023/08/28 09:30:36;;;;;;;6.90;5.82;;;;;;;16.40;73.56;98417.19;4987853;28;20026;-85
2023/08/28 09:33:04;;;;;;;7.22;5.50;;;;;;;16.46;73.78;98420.63;5007329;28;20041;-84
2023/08/28 09:35:37;;;;;;;7.93;6.60;;;;;;;16.60;72.64;98429.53;4988072;28;20042;-84
2023/08/28 09:38:02;;;;;;;6.75;6.15;;;;;;;16.56;73.47;98409.69;5003358;28;20114;-84
2023/08/28 09:40:33;;;;;;;7.38;5.97;;;;;;;16.70;73.18;98417.78;4967283;28;20505;-85
2023/08/28 09:43:00;;;;;;;6.93;5.95;;;;;;;16.86;72.04;98403.69;5002252;28;20498;-84
2023/08/28 09:45:32;;;;;;;9.15;7.45;;;;;;;16.69;71.80;98386.53;5013769;28;20057;-85
2023/08/28 09:47:58;;;;;;;8.27;7.50;;;;;;;16.53;72.31;98383.34;4978676;28;20084;-85
2023/08/28 09:50:27;;;;;;;13.32;8.93;;;;;;;16.53;71.39;98393.31;4992940;28;20026;-84
2023/08/28 09:52:52;;;;;;;7.75;6.90;;;;;;;16.94;72.22;98399.53;4995437;28;20114;-84
2023/08/28 09:55:18;;;;;;;8.85;5.68;;;;;;;16.99;71.55;98372.47;5001227;28;20046;-85
2023/08/28 09:57:43;;;;;;;8.52;6.90;;;;;;;17.01;71.30;98362.19;4977123;28;20034;-85
2023/08/28 10:00:11;;;;;;;10.48;9.48;;;;;;;16.70;71.77;98359.28;4993465;28;20041;-84
2023/08/28 10:02:38;;;;;;;9.98;8.98;;;;;;;17.00;71.02;98366.75;4980101;28;20037;-85
2023/08/28 10:05:06;;;;;;;10.77;9.20;;;;;;;16.77;70.67;98381.25;5003653;28;20045;-85
2023/08/28 10:07:32;;;;;;;7.22;6.53;;;;;;;16.71;72.71;98365.50;5006815;28;20035;-85
2023/08/28 10:10:01;;;;;;;6.07;5.30;;;;;;;16.83;72.06;98363.06;4994138;28;20166;-84
2023/08/28 10:12:28;;;;;;;10.35;8.68;;;;;;;16.65;72.04;98382.84;5000957;28;20418;-85
2023/08/28 10:14:54;;;;;;;10.10;8.60;;;;;;;17.12;72.00;98377.81;4991672;28;20067;-85
2023/08/28 10:17:23;;;;;;;8.32;7.63;;;;;;;17.29;72.78;98379.91;5008819;28;20041;-84
2023/08/28 10:19:58;;;;;;;10.13;7.78;;;;;;;17.02;71.06;98372.66;4991361;28;20060;-85
2023/08/28 10:22:25;;;;;;;13.13;9.70;;;;;;;17.19;69.68;98391.69;4976971;28;20036;-84
2023/08/28 10:24:52;;;;;;;10.27;9.25;;;;;;;17.22;69.93;98376.81;5011203;28;20497;-84
2023/08/28 10:27:20;;;;;;;10.48;9.13;;;;;;;16.93;69.08;98414.88;4978026;28;20030;-85
2023/08/28 10:29:46;;;;;;;12.13;9.88;;;;;;;16.42;70.59;98412.31;4994230;28;20038;-84
2023/08/28 10:32:14;;;;;;;6.65;5.93;;;;;;;17.53;72.15;98414.75;4972907;28;20398;-85
2023/08/28 10:34:40;;;;;;;10.07;9.05;;;;;;;17.31;68.23;98388.50;4978616;28;20516;-84
2023/08/28 10:37:10;;;;;;;10.38;7.80;;;;;;;17.67;69.77;98410.91;4973815;28;20030;-85
2023/08/28 10:39:40;;;;;;;4.45;4.03;;;;;;;18.57;68.69;98396.28;5010633;28;20085;-85
2023/08/28 10:42:08;;;;;;;7.75;6.88;;;;;;;18.68;67.90;98406.50;4976808;28;20038;-85
2023/08/28 10:44:35;;;;;;;5.63;4.93;;;;;;;18.81;67.61;98402.09;4991301;28;20386;-86
2023/08/28 10:47:00;;;;;;;5.18;4.63;;;;;;;18.85;67.41;98400.38;5009309;28;20041;-85
2023/08/28 10:49:27;;;;;;;8.63;7.82;;;;;;;18.83;66.46;98386.34;4974568;28;20068;-85
2023/08/28 10:52:05;;;;;;;5.45;4.75;;;;;;;19.23;66.39;98403.34;4992128;28;20096;-84
2023/08/28 10:54:38;;;;;;;4.80;4.35;;;;;;;19.43;65.44;98395.47;5005975;28;20037;-85
2023/08/28 10:57:10;;;;;;;4.70;4.30;;;;;;;19.39;63.32;98415.34;4976039;28;20037;-85
2023/08/28 10:59:45;;;;;;;5.60;5.10;;;;;;;18.67;64.38;98412.25;4991592;28;20394;-85
2023/08/28 11:02:14;;;;;;;8.85;5.53;;;;;;;18.81;64.40;98417.53;4987128;28;20045;-86
2023/08/28 11:04:40;;;;;;;7.40;5.80;;;;;;;18.87;64.88;98430.59;4990234;28;20044;-85
2023/08/28 11:07:30;;;;;;;7.30;4.68;;;;;;;19.48;65.83;98412.66;4990082;28;20044;-85
2023/08/28 11:10:16;;;;;;;5.28;4.78;;;;;;;19.44;65.48;98436.84;4989283;28;20085;-85
2023/08/28 11:12:53;;;;;;;4.13;3.50;;;;;;;19.74;66.09;98445.97;4991991;28;20065;-86
2023/08/28 11:15:40;;;;;;;6.93;5.57;;;;;;;19.19;62.71;98429.44;4970467;28;20287;-85
2023/08/28 11:18:26;;;;;;;3.90;3.50;;;;;;;19.56;65.68;98422.69;4993047;28;20033;-85
2023/08/28 11:21:03;;;;;;;7.55;4.90;;;;;;;19.27;62.99;98410.53;4993417;28;20038;-85
2023/08/28 11:23:34;;;;;;;4.80;3.53;;;;;;;19.41;65.29;98410.44;5004948;28;20049;-85
2023/08/28 11:26:06;;;;;;;4.93;3.85;;;;;;;19.72;64.79;98415.72;5007425;28;20036;-85
2023/08/28 11:28:43;;;;;;;7.30;4.13;;;;;;;19.19;61.40;98392.38;4991520;28;20145;-85
2023/08/28 11:31:08;;;;;;;4.32;3.45;;;;;;;19.27;62.04;98417.84;5009732;28;20669;-85